Time;durP1;ratioP1;P1;durP2;ratioP2;P2;SDS_P1;SDS_P2;PMS_P1;PMS_P2;Temp;Humidity;BMP_temperature;BMP_pressure;BME280_temperature;BME280_humidity;BME280_pressure;Samples;Min_cycle;Max_cycle;Signal;HPM_P1;HPM_P2
2021/07/09 00:01:00;;;;;;;6.30;3.50;;;18.40;99.90;;;;;;6216167;23;20440;-47
2021/07/09 00:03:25;;;;;;;5.50;3.40;;;18.50;99.90;;;;;;6215062;23;20004;-50
2021/07/09 00:05:51;;;;;;;6.63;3.70;;;18.50;99.90;;;;;;6216209;23;20421;-47
2021/07/09 00:08:16;;;;;;;6.35;3.40;;;18.50;99.90;;;;;;6215966;23;20047;-47
2021/07/09 00:10:42;;;;;;;7.00;3.55;;;18.50;99.90;;;;;;6216264;23;20009;-47
2021/07/09 00:13:07;;;;;;;4.38;3.28;;;18.50;99.90;;;;;;6216198;23;20302;-46
2021/07/09 00:15:34;;;;;;;6.90;3.63;;;18.50;99.90;;;;;;6215836;23;20001;-47
2021/07/09 00:18:00;;;;;;;7.38;3.53;;;18.50;99.90;;;;;;6215092;23;20020;-47
2021/07/09 00:20:25;;;;;;;3.83;3.03;;;18.50;99.90;;;;;;6216158;23;20480;-47
2021/07/09 00:22:51;;;;;;;3.72;3.30;;;18.50;99.90;;;;;;6215884;23;20001;-46
2021/07/09 00:25:17;;;;;;;5.80;3.50;;;18.50;99.90;;;;;;6215856;23;19997;-47
2021/07/09 00:27:42;;;;;;;6.22;3.58;;;18.50;99.90;;;;;;6215543;23;20337;-47
2021/07/09 00:30:08;;;;;;;3.38;3.00;;;18.40;99.90;;;;;;6215952;23;20004;-47
2021/07/09 00:32:34;;;;;;;5.50;3.50;;;18.40;99.90;;;;;;6215346;23;20008;-46
2021/07/09 00:34:59;;;;;;;8.68;3.72;;;18.40;99.90;;;;;;6215699;23;20305;-47
2021/07/09 00:37:25;;;;;;;3.85;3.15;;;18.40;99.90;;;;;;6215979;23;20008;-47
2021/07/09 00:39:50;;;;;;;4.97;3.25;;;18.40;99.90;;;;;;6215058;23;20008;-47
2021/07/09 00:42:16;;;;;;;5.97;3.47;;;18.50;99.90;;;;;;6215925;23;20072;-48
2021/07/09 00:44:41;;;;;;;4.82;3.13;;;18.50;99.90;;;;;;6215985;23;20337;-47
2021/07/09 00:47:07;;;;;;;12.23;4.00;;;18.50;99.90;;;;;;6215032;23;20352;-48
2021/07/09 00:49:32;;;;;;;6.65;4.13;;;18.50;99.90;;;;;;6214549;23;20028;-47
2021/07/09 00:51:58;;;;;;;7.18;3.92;;;18.50;99.90;;;;;;6214858;23;20036;-47
2021/07/09 00:54:23;;;;;;;7.55;3.50;;;18.50;99.90;;;;;;6215637;23;20295;-47
2021/07/09 00:56:49;;;;;;;4.20;3.38;;;18.50;99.90;;;;;;6215888;23;19997;-49
2021/07/09 00:59:21;;;;;;;6.20;3.30;;;18.50;99.90;;;;;;6215339;23;20001;-46
2021/07/09 01:01:47;;;;;;;5.20;3.58;;;18.40;99.90;;;;;;6190489;23;20058;-47
2021/07/09 01:04:13;;;;;;;5.78;3.50;;;18.50;99.90;;;;;;6215854;23;20617;-46
2021/07/09 01:06:38;;;;;;;5.95;3.35;;;18.50;99.90;;;;;;6215896;23;20000;-47
2021/07/09 01:09:04;;;;;;;4.50;3.40;;;18.40;99.90;;;;;;6215535;23;20032;-49
2021/07/09 01:11:29;;;;;;;8.15;3.47;;;18.40;99.90;;;;;;6215616;23;20583;-50
2021/07/09 01:13:55;;;;;;;4.00;3.28;;;18.40;99.90;;;;;;6216590;23;20008;-49
2021/07/09 01:16:20;;;;;;;4.97;2.97;;;18.40;99.90;;;;;;6214988;23;20009;-50
2021/07/09 01:18:46;;;;;;;5.95;3.20;;;18.30;99.90;;;;;;6214870;23;20317;-49
2021/07/09 01:21:12;;;;;;;5.85;3.45;;;18.30;99.90;;;;;;6214686;23;20483;-50
2021/07/09 01:23:40;;;;;;;6.95;3.15;;;18.40;99.90;;;;;;6215826;23;20054;-51
2021/07/09 01:26:08;;;;;;;5.28;2.90;;;18.40;99.90;;;;;;6215484;23;20008;-49
2021/07/09 01:28:34;;;;;;;4.75;3.42;;;18.40;99.90;;;;;;6214863;23;20004;-49
2021/07/09 01:31:00;;;;;;;6.80;3.67;;;18.30;99.90;;;;;;6215029;23;20015;-50
2021/07/09 01:33:25;;;;;;;6.45;3.25;;;18.30;99.90;;;;;;6215422;23;20302;-49
2021/07/09 01:35:51;;;;;;;4.35;2.75;;;18.30;99.90;;;;;;6215383;23;20012;-50
2021/07/09 01:38:17;;;;;;;5.13;3.17;;;18.20;99.90;;;;;;6214457;23;20008;-50
2021/07/09 01:40:43;;;;;;;6.53;3.20;;;18.30;99.90;;;;;;6215344;23;20394;-49
2021/07/09 01:43:09;;;;;;;6.53;2.83;;;18.30;99.90;;;;;;6215252;23;20028;-49
2021/07/09 01:45:35;;;;;;;4.32;3.17;;;18.30;99.90;;;;;;6215249;23;20019;-51
2021/07/09 01:48:01;;;;;;;4.15;2.75;;;18.30;99.90;;;;;;6214601;23;20083;-50
2021/07/09 01:50:27;;;;;;;6.38;3.33;;;18.20;99.90;;;;;;6214047;23;20147;-50
2021/07/09 01:52:52;;;;;;;9.27;3.60;;;18.20;99.90;;;;;;6215024;23;20008;-50
2021/07/09 01:55:18;;;;;;;6.10;3.65;;;18.20;99.90;;;;;;6215423;23;20005;-51
2021/07/09 01:57:45;;;;;;;5.63;2.97;;;18.20;99.90;;;;;;6214445;23;19997;-49
2021/07/09 02:00:16;;;;;;;5.45;3.10;;;18.30;99.90;;;;;;6215082;23;20016;-51
2021/07/09 02:02:42;;;;;;;7.57;3.42;;;18.30;99.90;;;;;;6215044;23;20802;-50
2021/07/09 02:05:10;;;;;;;4.45;3.28;;;18.30;99.90;;;;;;6214951;23;20085;-49
2021/07/09 02:07:37;;;;;;;10.43;4.43;;;18.30;99.90;;;;;;6214438;23;20605;-49
2021/07/09 02:10:06;;;;;;;7.22;3.63;;;18.30;99.90;;;;;;6215468;23;20005;-49
2021/07/09 02:12:32;;;;;;;4.18;2.78;;;18.30;99.90;;;;;;6215043;23;20516;-50
2021/07/09 02:15:00;;;;;;;8.48;3.15;;;18.30;99.90;;;;;;6214689;23;20123;-49
2021/07/09 02:17:25;;;;;;;5.95;3.78;;;18.20;99.90;;;;;;6214750;23;20013;-48
2021/07/09 02:19:51;;;;;;;6.78;3.42;;;18.20;99.90;;;;;;6214021;23;20314;-49
2021/07/09 02:22:19;;;;;;;4.65;3.20;;;18.20;99.90;;;;;;6188012;23;20001;-49
2021/07/09 02:24:46;;;;;;;5.63;3.45;;;18.20;99.90;;;;;;6214977;23;20406;-49
2021/07/09 02:27:12;;;;;;;5.22;3.08;;;18.20;99.90;;;;;;6215130;23;20083;-49
2021/07/09 02:29:38;;;;;;;6.00;3.20;;;18.20;99.90;;;;;;6214108;23;20035;-50
2021/07/09 02:32:07;;;;;;;8.00;3.63;;;18.20;99.90;;;;;;6214613;23;20009;-49
2021/07/09 02:34:33;;;;;;;8.23;3.25;;;18.30;99.90;;;;;;6214181;23;20126;-49
2021/07/09 02:36:59;;;;;;;4.78;3.45;;;18.30;99.90;;;;;;6214267;23;20009;-49
2021/07/09 02:39:28;;;;;;;4.78;3.45;;;18.30;99.90;;;;;;6214106;23;20011;-50
2021/07/09 02:41:54;;;;;;;8.65;3.25;;;18.30;99.90;;;;;;6215216;23;20001;-52
2021/07/09 02:44:21;;;;;;;5.95;3.10;;;18.40;99.90;;;;;;6215196;23;20004;-50
2021/07/09 02:46:47;;;;;;;5.82;3.00;;;18.40;99.90;;;;;;6188049;23;20051;-49
2021/07/09 02:49:12;;;;;;;5.43;2.95;;;18.40;99.90;;;;;;6213989;23;20012;-49
2021/07/09 02:51:38;;;;;;;3.70;2.85;;;18.40;99.90;;;;;;6214493;23;20008;-49
2021/07/09 02:54:03;;;;;;;5.45;3.15;;;18.40;99.90;;;;;;6214781;23;20008;-50
2021/07/09 02:56:29;;;;;;;4.93;3.35;;;18.40;99.90;;;;;;6215291;23;20701;-49
2021/07/09 02:58:55;;;;;;;3.78;3.08;;;18.30;99.90;;;;;;6213746;23;20016;-49
2021/07/09 03:01:20;;;;;;;5.32;2.90;;;18.30;99.90;;;;;;6213999;23;19996;-50
2021/07/09 03:03:46;;;;;;;4.93;2.72;;;18.30;99.90;;;;;;6214394;23;20009;-49
2021/07/09 03:06:11;;;;;;;6.20;3.08;;;18.30;99.90;;;;;;6214803;23;20364;-50
2021/07/09 03:08:37;;;;;;;4.60;2.60;;;18.30;99.90;;;;;;6213839;23;20464;-51
2021/07/09 03:11:02;;;;;;;6.00;3.72;;;18.30;99.90;;;;;;6214377;23;20008;-49
2021/07/09 03:13:28;;;;;;;3.50;3.10;;;18.30;99.90;;;;;;6214403;23;20329;-51
2021/07/09 03:15:53;;;;;;;3.70;2.72;;;18.40;99.90;;;;;;6213766;23;20012;-50
2021/07/09 03:18:19;;;;;;;6.05;3.60;;;18.40;99.90;;;;;;6213638;23;20461;-49
2021/07/09 03:20:44;;;;;;;5.35;2.70;;;18.40;99.90;;;;;;6214312;23;20024;-51
2021/07/09 03:23:11;;;;;;;6.03;2.85;;;18.40;99.90;;;;;;6187264;23;20001;-49
2021/07/09 03:25:37;;;;;;;6.15;3.00;;;18.40;99.90;;;;;;6214200;23;20004;-49
2021/07/09 03:28:02;;;;;;;8.27;2.92;;;18.40;99.90;;;;;;6213175;23;20043;-49
2021/07/09 03:30:28;;;;;;;6.00;2.60;;;18.40;99.90;;;;;;6214255;23;20364;-50
2021/07/09 03:32:53;;;;;;;4.72;2.58;;;18.40;99.90;;;;;;6214026;23;20008;-49
2021/07/09 03:35:19;;;;;;;5.63;3.08;;;18.40;99.90;;;;;;6213729;23;20353;-52
2021/07/09 03:37:44;;;;;;;5.00;2.40;;;18.40;99.90;;;;;;6213495;23;20005;-51
2021/07/09 03:40:11;;;;;;;5.82;2.75;;;18.30;99.90;;;;;;6214196;23;20023;-52
2021/07/09 03:42:37;;;;;;;9.52;2.55;;;18.30;99.90;;;;;;6214770;23;20000;-51
2021/07/09 03:45:04;;;;;;;4.10;2.63;;;18.40;99.90;;;;;;6213432;23;20397;-49
2021/07/09 03:47:30;;;;;;;5.10;2.88;;;18.40;99.90;;;;;;6214222;23;20001;-49
2021/07/09 03:49:55;;;;;;;11.57;2.42;;;18.40;99.90;;;;;;6212825;23;20515;-50
2021/07/09 03:52:20;;;;;;;6.20;3.30;;;18.40;99.90;;;;;;6214116;23;20004;-49
2021/07/09 03:54:46;;;;;;;4.43;2.58;;;18.40;99.90;;;;;;6214270;23;20036;-49
2021/07/09 03:57:11;;;;;;;8.15;2.88;;;18.40;99.90;;;;;;6213774;23;20004;-49
2021/07/09 03:59:37;;;;;;;6.78;2.55;;;18.40;99.90;;;;;;6213195;23;20087;-49
2021/07/09 04:02:03;;;;;;;4.72;3.00;;;18.40;99.90;;;;;;6214030;23;20050;-49
2021/07/09 04:04:28;;;;;;;3.92;2.35;;;18.40;99.90;;;;;;6214106;23;20075;-49
2021/07/09 04:06:54;;;;;;;9.30;2.85;;;18.40;99.90;;;;;;6214163;23;20055;-53
2021/07/09 04:09:19;;;;;;;2.60;2.40;;;18.40;99.90;;;;;;6213548;23;20012;-52
2021/07/09 04:11:45;;;;;;;6.93;3.05;;;18.40;99.90;;;;;;6214382;23;20009;-52
2021/07/09 04:14:11;;;;;;;4.57;2.75;;;18.50;99.90;;;;;;6214184;23;20005;-49
2021/07/09 04:16:36;;;;;;;5.38;2.80;;;18.50;99.90;;;;;;6213920;23;20409;-49
2021/07/09 04:19:02;;;;;;;6.25;2.60;;;18.50;99.90;;;;;;6213849;23;20096;-49
2021/07/09 04:21:27;;;;;;;4.18;3.15;;;18.50;99.90;;;;;;6213492;23;20036;-52
2021/07/09 04:23:53;;;;;;;3.67;2.95;;;18.50;99.90;;;;;;6214097;23;20056;-49
2021/07/09 04:26:18;;;;;;;6.68;2.70;;;18.50;99.90;;;;;;6213898;23;20044;-51
2021/07/09 04:28:44;;;;;;;4.35;3.58;;;18.50;99.90;;;;;;6214743;23;20016;-49
2021/07/09 04:31:09;;;;;;;6.28;3.15;;;18.40;99.90;;;;;;6216300;23;20036;-49
2021/07/09 04:33:35;;;;;;;10.40;3.20;;;18.50;99.90;;;;;;6215836;23;20012;-49
2021/07/09 04:36:01;;;;;;;7.95;3.33;;;18.50;99.90;;;;;;6216217;23;20012;-50
2021/07/09 04:38:26;;;;;;;9.57;3.65;;;18.50;99.90;;;;;;6188424;23;20103;-53
2021/07/09 04:40:52;;;;;;;9.73;3.30;;;18.40;99.90;;;;;;6215822;23;20299;-49
2021/07/09 04:43:17;;;;;;;8.15;3.47;;;18.40;99.90;;;;;;6216004;23;20001;-50
2021/07/09 04:45:43;;;;;;;9.13;3.40;;;18.40;99.90;;;;;;6215015;23;20032;-51
2021/07/09 04:48:09;;;;;;;7.38;4.63;;;18.40;99.90;;;;;;6215128;23;20004;-52
2021/07/09 04:50:35;;;;;;;3.90;3.53;;;18.40;99.90;;;;;;6214780;23;20429;-52
2021/07/09 04:53:01;;;;;;;5.60;3.60;;;18.40;99.90;;;;;;6215430;23;20004;-51
2021/07/09 04:55:26;;;;;;;7.50;3.75;;;18.40;99.90;;;;;;6215568;23;20009;-51
2021/07/09 04:57:52;;;;;;;4.25;3.58;;;18.40;99.90;;;;;;6215144;23;20005;-49
2021/07/09 05:00:17;;;;;;;6.93;4.20;;;18.40;99.90;;;;;;6215261;23;20342;-51
2021/07/09 05:02:43;;;;;;;5.28;3.97;;;18.50;99.90;;;;;;6215885;23;20004;-54
2021/07/09 05:05:11;;;;;;;8.45;4.22;;;18.40;99.90;;;;;;6215313;23;20351;-49
2021/07/09 05:07:37;;;;;;;6.40;4.60;;;18.40;99.90;;;;;;6214577;23;20036;-56
2021/07/09 05:10:06;;;;;;;6.03;4.40;;;18.40;99.90;;;;;;6215686;23;20008;-50
2021/07/09 05:12:31;;;;;;;5.63;4.18;;;18.40;99.90;;;;;;6215684;23;20009;-53
2021/07/09 05:14:57;;;;;;;6.43;4.25;;;18.40;99.90;;;;;;6214985;23;20088;-49
2021/07/09 05:17:23;;;;;;;8.35;4.72;;;18.50;99.90;;;;;;6215709;23;20031;-52
2021/07/09 05:19:52;;;;;;;9.43;5.38;;;18.50;99.90;;;;;;6214595;23;20444;-50
2021/07/09 05:22:21;;;;;;;6.60;5.20;;;18.50;99.90;;;;;;6215085;23;20084;-52
2021/07/09 05:24:48;;;;;;;10.23;5.13;;;18.50;99.90;;;;;;6215629;23;20003;-54
2021/07/09 05:27:15;;;;;;;7.00;4.90;;;18.50;99.90;;;;;;6216136;23;20009;-53
2021/07/09 05:29:41;;;;;;;8.00;5.30;;;18.50;99.90;;;;;;6214859;23;20013;-54
2021/07/09 05:32:07;;;;;;;9.38;5.60;;;18.40;99.90;;;;;;6215472;23;20008;-54
2021/07/09 05:34:34;;;;;;;8.57;5.88;;;18.50;99.90;;;;;;6214963;23;20055;-49
2021/07/09 05:37:00;;;;;;;6.22;5.10;;;18.40;99.90;;;;;;6215503;23;20079;-51
2021/07/09 05:39:26;;;;;;;7.10;5.50;;;18.40;99.90;;;;;;6214258;23;20063;-51
2021/07/09 05:41:51;;;;;;;6.43;5.63;;;18.40;99.90;;;;;;6215258;23;20005;-50
2021/07/09 05:44:17;;;;;;;7.95;5.50;;;18.40;99.90;;;;;;6214838;23;20004;-49
2021/07/09 05:46:42;;;;;;;6.82;5.22;;;18.40;99.90;;;;;;6214973;23;20068;-51
2021/07/09 05:49:08;;;;;;;9.55;5.75;;;18.40;99.90;;;;;;6214142;23;20038;-49
2021/07/09 05:51:33;;;;;;;7.05;5.40;;;18.50;99.90;;;;;;6214214;23;20012;-53
2021/07/09 05:53:59;;;;;;;9.55;5.95;;;18.50;99.90;;;;;;6215055;23;20016;-51
2021/07/09 05:56:24;;;;;;;7.95;6.32;;;18.60;99.90;;;;;;6214900;23;20463;-50
2021/07/09 05:58:50;;;;;;;10.57;5.65;;;18.60;99.90;;;;;;6214385;23;20019;-51
2021/07/09 06:01:16;;;;;;;6.70;5.68;;;18.50;99.90;;;;;;6215123;23;19997;-47
2021/07/09 06:03:41;;;;;;;7.95;5.95;;;18.60;99.90;;;;;;6214372;23;20001;-47
2021/07/09 06:06:06;;;;;;;7.15;5.00;;;18.60;99.90;;;;;;6215119;23;20417;-47
2021/07/09 06:08:32;;;;;;;8.52;5.32;;;18.60;99.90;;;;;;6214301;23;20013;-46
2021/07/09 06:10:58;;;;;;;7.18;6.20;;;18.60;99.90;;;;;;6215111;23;20000;-46
2021/07/09 06:13:24;;;;;;;9.05;5.68;;;18.60;99.90;;;;;;6214336;23;20088;-48
2021/07/09 06:15:49;;;;;;;9.90;6.20;;;18.60;99.90;;;;;;6214815;23;20298;-47
2021/07/09 06:18:15;;;;;;;8.07;5.93;;;18.60;99.90;;;;;;6213957;23;20390;-47
2021/07/09 06:20:40;;;;;;;8.07;5.57;;;18.60;99.90;;;;;;6213980;23;20047;-46
2021/07/09 06:23:06;;;;;;;7.78;5.50;;;18.70;99.90;;;;;;6214372;23;20009;-47
2021/07/09 06:25:31;;;;;;;7.15;5.68;;;18.70;99.90;;;;;;6214372;23;20163;-46
2021/07/09 06:27:57;;;;;;;6.93;5.35;;;18.70;99.90;;;;;;6214068;23;20394;-47
2021/07/09 06:30:22;;;;;;;6.03;4.65;;;18.80;99.90;;;;;;6214788;23;20062;-47
2021/07/09 06:32:48;;;;;;;8.15;5.53;;;18.80;99.90;;;;;;6214180;23;20063;-49
2021/07/09 06:35:14;;;;;;;7.80;5.20;;;18.80;99.90;;;;;;6214739;23;20090;-47
2021/07/09 06:37:39;;;;;;;6.30;4.63;;;18.80;99.90;;;;;;6214478;23;20393;-46
2021/07/09 06:40:08;;;;;;;6.30;5.10;;;18.80;99.90;;;;;;6214436;23;20005;-47
2021/07/09 06:42:34;;;;;;;7.90;5.60;;;18.90;99.90;;;;;;6213731;23;20055;-48
2021/07/09 06:44:59;;;;;;;7.90;5.93;;;18.90;99.90;;;;;;6214499;23;20058;-47
2021/07/09 06:47:25;;;;;;;7.35;5.80;;;18.90;99.90;;;;;;6214151;23;19997;-46
2021/07/09 06:49:51;;;;;;;7.93;5.50;;;18.90;99.90;;;;;;6213370;23;20099;-47
2021/07/09 06:52:16;;;;;;;5.75;5.03;;;18.90;99.90;;;;;;6213873;23;20000;-47
2021/07/09 06:54:42;;;;;;;6.30;5.70;;;18.90;99.90;;;;;;6214477;23;20024;-47
2021/07/09 06:57:07;;;;;;;7.30;5.75;;;19.00;99.90;;;;;;6214587;23;20039;-46
2021/07/09 06:59:33;;;;;;;6.97;5.45;;;19.00;99.90;;;;;;6214060;23;20031;-50
2021/07/09 07:01:58;;;;;;;8.98;5.50;;;19.00;99.90;;;;;;6214096;23;20001;-48
2021/07/09 07:04:24;;;;;;;7.05;5.38;;;19.00;99.90;;;;;;6214344;23;20031;-47
2021/07/09 07:06:51;;;;;;;7.82;6.47;;;19.00;99.90;;;;;;6213980;23;20000;-46
2021/07/09 07:09:17;;;;;;;7.45;6.20;;;19.00;99.90;;;;;;6213976;23;20032;-47
2021/07/09 07:11:43;;;;;;;6.50;5.65;;;18.90;99.90;;;;;;6213558;23;20043;-47
2021/07/09 07:14:08;;;;;;;8.40;6.55;;;18.90;99.90;;;;;;6214715;23;20004;-48
2021/07/09 07:16:34;;;;;;;6.53;5.47;;;18.90;99.90;;;;;;6214440;23;19997;-48
2021/07/09 07:18:59;;;;;;;11.27;7.75;;;18.90;99.90;;;;;;6213552;23;20008;-48
2021/07/09 07:21:25;;;;;;;7.85;6.13;;;18.90;99.90;;;;;;6213888;23;20103;-49
2021/07/09 07:23:50;;;;;;;8.55;6.80;;;18.80;99.90;;;;;;6187266;23;20005;-47
2021/07/09 07:26:16;;;;;;;7.18;6.35;;;18.80;99.90;;;;;;6214341;23;20071;-48
2021/07/09 07:28:41;;;;;;;8.07;6.50;;;18.80;99.90;;;;;;6213751;23;20001;-48
2021/07/09 07:31:09;;;;;;;9.30;6.82;;;18.80;99.90;;;;;;6214028;23;20072;-47
2021/07/09 07:33:34;;;;;;;9.68;7.28;;;18.90;99.90;;;;;;6214306;23;20009;-48
2021/07/09 07:36:00;;;;;;;10.90;6.63;;;18.80;99.90;;;;;;6213910;23;20008;-46
2021/07/09 07:38:25;;;;;;;8.75;6.75;;;18.80;99.90;;;;;;6213017;23;20506;-46
2021/07/09 07:40:51;;;;;;;9.55;7.88;;;18.90;99.90;;;;;;6214002;23;20000;-47
2021/07/09 07:43:16;;;;;;;9.77;8.02;;;18.80;99.90;;;;;;6213871;23;20079;-47
2021/07/09 07:45:42;;;;;;;9.23;7.50;;;18.90;99.90;;;;;;6212605;23;20008;-47
2021/07/09 07:48:07;;;;;;;9.73;7.65;;;18.90;99.90;;;;;;6213286;23;20016;-46
2021/07/09 07:50:33;;;;;;;8.93;7.38;;;18.90;99.90;;;;;;6213526;23;20023;-47
2021/07/09 07:52:58;;;;;;;8.80;7.10;;;18.90;99.90;;;;;;6213342;23;20001;-47
2021/07/09 07:55:24;;;;;;;7.65;6.82;;;19.00;99.90;;;;;;6213361;23;20009;-50
2021/07/09 07:57:49;;;;;;;9.13;7.88;;;19.00;99.90;;;;;;6211528;23;20032;-47
2021/07/09 08:00:15;;;;;;;9.07;7.57;;;19.00;99.90;;;;;;6212458;23;20031;-47
2021/07/09 08:02:41;;;;;;;10.25;7.05;;;19.10;99.90;;;;;;6214351;23;20440;-46
2021/07/09 08:05:08;;;;;;;9.43;7.38;;;19.10;99.90;;;;;;6216045;23;20005;-46
2021/07/09 08:07:33;;;;;;;9.50;8.07;;;19.10;99.90;;;;;;6215736;23;20083;-46
2021/07/09 08:09:59;;;;;;;16.02;10.73;;;19.10;99.90;;;;;;6215731;23;20436;-47
2021/07/09 08:12:24;;;;;;;13.20;10.23;;;19.10;99.90;;;;;;6215833;23;20008;-47
2021/07/09 08:14:50;;;;;;;12.50;10.30;;;19.20;99.90;;;;;;6215289;23;20428;-46
2021/07/09 08:17:15;;;;;;;13.38;9.63;;;19.20;99.90;;;;;;6215656;23;20004;-47
2021/07/09 08:19:41;;;;;;;10.48;8.52;;;19.30;99.90;;;;;;6215613;23;20058;-46
2021/07/09 08:22:06;;;;;;;10.32;8.75;;;19.40;99.90;;;;;;6215841;23;20000;-46
2021/07/09 08:24:32;;;;;;;11.98;8.15;;;19.50;99.90;;;;;;6216518;23;19996;-46
2021/07/09 08:26:57;;;;;;;11.02;8.48;;;19.50;99.90;;;;;;6215361;23;20004;-46
2021/07/09 08:29:23;;;;;;;11.35;8.18;;;19.50;99.90;;;;;;6215229;23;20001;-47
2021/07/09 08:31:49;;;;;;;9.63;8.05;;;19.50;99.90;;;;;;6215810;23;20095;-46
2021/07/09 08:34:14;;;;;;;8.10;7.30;;;19.50;99.90;;;;;;6215574;23;20000;-47
2021/07/09 08:36:40;;;;;;;8.60;7.80;;;19.50;99.90;;;;;;6216050;23;20008;-46
2021/07/09 08:39:05;;;;;;;8.98;8.07;;;19.50;99.90;;;;;;6215016;23;20009;-47
2021/07/09 08:41:32;;;;;;;10.15;8.43;;;19.50;99.90;;;;;;6216037;23;20562;-46
2021/07/09 08:43:57;;;;;;;12.65;7.45;;;19.50;99.90;;;;;;6215423;23;20000;-47
2021/07/09 08:46:27;;;;;;;8.43;7.50;;;19.50;99.90;;;;;;6215383;23;20328;-47
2021/07/09 08:48:53;;;;;;;7.60;6.80;;;19.60;99.90;;;;;;6215259;23;20013;-47
2021/07/09 08:51:18;;;;;;;6.93;6.00;;;19.60;99.90;;;;;;6215435;23;20009;-47
2021/07/09 08:53:44;;;;;;;9.75;7.18;;;19.60;99.90;;;;;;6215243;23;20040;-46
2021/07/09 08:56:10;;;;;;;8.20;6.82;;;19.60;99.90;;;;;;6215803;23;20005;-46
2021/07/09 08:58:36;;;;;;;7.05;6.35;;;19.60;99.90;;;;;;6214782;23;20012;-47
2021/07/09 09:01:04;;;;;;;9.13;6.97;;;19.60;99.90;;;;;;6215046;23;20396;-46
2021/07/09 09:03:29;;;;;;;7.22;6.50;;;19.60;99.90;;;;;;6215665;23;20000;-46
2021/07/09 09:06:00;;;;;;;8.35;6.88;;;19.70;99.90;;;;;;6214776;23;19996;-47
2021/07/09 09:08:32;;;;;;;7.38;6.68;;;19.70;99.90;;;;;;6215188;23;20005;-47
2021/07/09 09:10:58;;;;;;;9.45;7.85;;;19.70;99.90;;;;;;6215948;23;20058;-46
2021/07/09 09:13:28;;;;;;;7.68;6.88;;;19.70;99.90;;;;;;6214848;23;20005;-46
2021/07/09 09:16:00;;;;;;;7.03;6.32;;;19.70;99.90;;;;;;6215970;23;20087;-47
2021/07/09 09:18:29;;;;;;;9.35;6.45;;;19.70;99.90;;;;;;6215227;23;20115;-46
2021/07/09 09:21:10;;;;;;;6.90;6.20;;;19.70;99.90;;;;;;6215427;23;20055;-47
2021/07/09 09:23:51;;;;;;;8.77;6.65;;;19.80;99.90;;;;;;6215367;23;20314;-48
2021/07/09 09:26:50;;;;;;;7.05;6.35;;;19.80;99.90;;;;;;6215378;23;20028;-47
2021/07/09 09:29:25;;;;;;;9.43;6.40;;;19.90;99.90;;;;;;6214692;23;20004;-47
2021/07/09 09:32:03;;;;;;;7.55;6.30;;;19.90;99.90;;;;;;6214886;23;20001;-49
2021/07/09 09:34:43;;;;;;;7.72;6.93;;;19.90;99.90;;;;;;6215070;23;20009;-47
2021/07/09 09:37:10;;;;;;;9.23;6.68;;;20.00;99.90;;;;;;6213049;23;20005;-47
2021/07/09 09:39:39;;;;;;;9.90;6.88;;;20.00;99.90;;;;;;6211143;23;20366;-48
2021/07/09 09:42:23;;;;;;;7.85;5.88;;;20.10;99.90;;;;;;6213372;23;20020;-47
2021/07/09 09:44:58;;;;;;;6.25;5.47;;;20.10;99.90;;;;;;6214235;23;20005;-47
2021/07/09 09:47:26;;;;;;;7.35;6.03;;;20.10;99.90;;;;;;6214331;23;20013;-46
2021/07/09 09:49:55;;;;;;;9.32;6.57;;;20.10;99.90;;;;;;6212912;23;20028;-47
2021/07/09 09:52:38;;;;;;;12.32;6.57;;;20.20;99.90;;;;;;6213368;23;20009;-47
2021/07/09 09:55:10;;;;;;;7.07;5.82;;;20.20;99.90;;;;;;6214587;23;20012;-48
2021/07/09 09:57:37;;;;;;;6.38;5.72;;;20.20;99.90;;;;;;6212489;23;20372;-52
2021/07/09 10:00:05;;;;;;;7.40;5.32;;;20.20;99.90;;;;;;6214035;23;20009;-47
2021/07/09 10:02:31;;;;;;;12.38;5.85;;;20.10;99.90;;;;;;6213294;23;20009;-47
2021/07/09 10:04:57;;;;;;;7.75;5.10;;;20.00;99.90;;;;;;6214618;23;20005;-47
2021/07/09 10:07:23;;;;;;;7.82;5.47;;;20.00;99.90;;;;;;6215204;23;20012;-49
2021/07/09 10:09:49;;;;;;;7.18;4.90;;;20.10;99.90;;;;;;6214176;23;20005;-47
2021/07/09 10:12:18;;;;;;;7.40;5.25;;;20.10;99.90;;;;;;6213815;23;20048;-48
2021/07/09 10:14:45;;;;;;;6.53;4.68;;;20.10;99.90;;;;;;6214683;23;20001;-47
2021/07/09 10:17:14;;;;;;;10.45;5.10;;;20.10;99.90;;;;;;6214294;23;20015;-47
2021/07/09 10:19:42;;;;;;;7.53;4.75;;;20.00;99.90;;;;;;6214576;23;20009;-49
2021/07/09 10:22:10;;;;;;;8.98;4.90;;;20.00;99.90;;;;;;6214196;23;20011;-49
2021/07/09 10:24:39;;;;;;;5.07;4.57;;;20.10;99.90;;;;;;6213749;23;20146;-48
2021/07/09 10:27:05;;;;;;;6.50;4.70;;;20.10;99.90;;;;;;6214885;23;20000;-47
2021/07/09 10:29:33;;;;;;;6.38;5.10;;;20.20;99.90;;;;;;6214274;23;20005;-47
2021/07/09 10:32:01;;;;;;;6.35;5.75;;;20.30;99.90;;;;;;6214897;23;20004;-51
2021/07/09 10:34:37;;;;;;;5.78;4.60;;;20.40;99.90;;;;;;6214740;23;20100;-51
2021/07/09 10:37:03;;;;;;;6.88;4.65;;;20.50;99.90;;;;;;6214682;23;20157;-48
2021/07/09 10:39:40;;;;;;;7.18;5.35;;;20.50;99.90;;;;;;6186942;23;20043;-47
2021/07/09 10:42:13;;;;;;;6.18;3.95;;;20.60;99.90;;;;;;6213703;23;20004;-47
2021/07/09 10:44:54;;;;;;;8.13;4.43;;;20.60;99.90;;;;;;6213696;23;20024;-47
2021/07/09 10:47:19;;;;;;;6.45;4.38;;;20.60;99.90;;;;;;6214044;23;20079;-47
2021/07/09 10:49:51;;;;;;;5.05;4.32;;;20.60;99.90;;;;;;6212580;23;20099;-48
2021/07/09 10:52:42;;;;;;;7.72;4.28;;;20.60;99.90;;;;;;6213581;23;20011;-47
2021/07/09 10:55:29;;;;;;;8.80;4.28;;;20.50;99.90;;;;;;6214108;23;20011;-51
2021/07/09 10:58:07;;;;;;;7.88;4.55;;;20.50;99.90;;;;;;6213677;23;20011;-49
2021/07/09 11:00:56;;;;;;;5.65;4.85;;;20.50;99.90;;;;;;6187310;23;20012;-47
2021/07/09 11:03:40;;;;;;;8.13;5.43;;;20.50;99.90;;;;;;6214686;23;20001;-46
2021/07/09 11:06:13;;;;;;;8.82;4.75;;;20.40;99.90;;;;;;6214234;23;20015;-47
2021/07/09 11:08:42;;;;;;;7.82;4.80;;;20.40;99.90;;;;;;6213382;23;20381;-46
2021/07/09 11:11:10;;;;;;;6.30;4.65;;;20.40;99.90;;;;;;6214243;23;20027;-48
2021/07/09 11:13:41;;;;;;;8.75;4.57;;;20.40;99.90;;;;;;6214316;23;20038;-48
2021/07/09 11:16:25;;;;;;;7.75;4.57;;;20.30;99.90;;;;;;6214262;23;20376;-48
2021/07/09 11:19:03;;;;;;;;;;;20.30;99.90;;;;;;6214657;23;20008;-49
2021/07/09 11:21:32;;;;;;;7.38;4.97;;;20.30;99.90;;;;;;6188690;23;19900;-50
2021/07/09 11:23:58;;;;;;;9.38;5.13;;;20.30;99.90;;;;;;6215571;23;20007;-47
2021/07/09 11:26:26;;;;;;;6.13;4.85;;;20.30;99.90;;;;;;6215616;23;20008;-47
2021/07/09 11:28:52;;;;;;;7.07;4.55;;;20.30;99.90;;;;;;6213142;23;20086;-48
2021/07/09 11:31:33;;;;;;;7.93;5.22;;;20.40;99.90;;;;;;6187684;23;20001;-48
2021/07/09 11:34:12;;;;;;;5.85;4.53;;;20.40;99.90;;;;;;6213827;23;20000;-47
2021/07/09 11:36:46;;;;;;;9.38;4.90;;;20.40;99.90;;;;;;6213971;23;20087;-47
2021/07/09 11:39:14;;;;;;;7.10;4.97;;;20.40;99.90;;;;;;6213801;23;20005;-46
2021/07/09 11:41:51;;;;;;;5.18;4.68;;;20.40;99.90;;;;;;6186472;23;20021;-46
2021/07/09 11:44:21;;;;;;;11.48;4.70;;;20.40;99.90;;;;;;6214021;23;20043;-47
2021/07/09 11:46:48;;;;;;;9.15;4.55;;;20.30;99.90;;;;;;6212899;23;20023;-48
2021/07/09 11:49:23;;;;;;;6.28;4.35;;;20.40;99.90;;;;;;6212188;23;20013;-46
2021/07/09 11:51:51;;;;;;;5.65;4.75;;;20.40;99.90;;;;;;6214047;23;20005;-47
2021/07/09 11:54:29;;;;;;;6.00;4.68;;;20.30;99.90;;;;;;6214174;23;20008;-47
2021/07/09 11:56:58;;;;;;;6.13;4.60;;;20.40;99.90;;;;;;6214322;23;20024;-46
2021/07/09 11:59:24;;;;;;;11.95;6.00;;;20.40;99.90;;;;;;6213427;23;20009;-46
2021/07/09 12:02:08;;;;;;;5.75;4.30;;;20.30;99.90;;;;;;6214644;23;20372;-46
2021/07/09 12:04:35;;;;;;;;;;;20.40;99.90;;;;;;6215214;23;20063;-47
2021/07/09 12:07:32;;;;;;;4.40;3.92;;;20.40;99.90;;;;;;6214221;23;19900;-46
2021/07/09 12:10:05;;;;;;;6.72;4.50;;;20.40;99.90;;;;;;6214067;23;20004;-47
2021/07/09 12:12:38;;;;;;;4.55;3.90;;;20.40;99.90;;;;;;6214535;23;20011;-47
2021/07/09 12:15:08;;;;;;;4.53;3.97;;;20.40;99.90;;;;;;6214574;23;20417;-48
2021/07/09 12:17:41;;;;;;;4.78;3.40;;;20.60;99.90;;;;;;6213696;23;20005;-47
2021/07/09 12:20:11;;;;;;;5.18;3.08;;;20.60;99.90;;;;;;6214266;23;20320;-46
2021/07/09 12:22:40;;;;;;;5.32;3.00;;;20.80;99.90;;;;;;6214472;23;20011;-46
2021/07/09 12:25:33;;;;;;;4.20;3.08;;;20.80;99.90;;;;;;6214390;23;20068;-46
2021/07/09 12:28:02;;;;;;;7.68;3.58;;;20.80;99.90;;;;;;6207601;23;20057;-47
2021/07/09 12:30:32;;;;;;;4.35;2.40;;;20.80;99.90;;;;;;6213802;23;20441;-47
2021/07/09 12:33:01;;;;;;;3.92;3.00;;;20.80;99.90;;;;;;6214407;23;20012;-47
2021/07/09 12:35:29;;;;;;;4.70;3.22;;;20.80;99.90;;;;;;6214023;23;20082;-47
2021/07/09 12:38:18;;;;;;;3.42;2.70;;;20.90;99.90;;;;;;6213698;23;20602;-47
2021/07/09 12:40:46;;;;;;;3.95;2.03;;;20.80;99.90;;;;;;6213311;23;20068;-47
2021/07/09 12:43:21;;;;;;;2.72;2.30;;;20.80;99.90;;;;;;6214708;23;20318;-47
2021/07/09 12:46:06;;;;;;;4.72;2.40;;;20.80;99.90;;;;;;6214145;23;20076;-47
2021/07/09 12:48:39;;;;;;;3.65;1.85;;;20.80;99.90;;;;;;6214227;23;20000;-48